sensor_id;sensor_type;location;lat;lon;timestamp;temperature;humidity
33255;DHT22;19623;52.482;9.762;2023-01-19T00:01:55;0.60;99.90
33255;DHT22;19623;52.482;9.762;2023-01-19T00:04:20;0.60;99.90
33255;DHT22;19623;52.482;9.762;2023-01-19T00:06:46;0.60;99.90
33255;DHT22;19623;52.482;9.762;2023-01-19T00:09:11;0.70;99.90
33255;DHT22;19623;52.482;9.762;2023-01-19T00:11:37;0.70;99.90
33255;DHT22;19623;52.482;9.762;2023-01-19T00:14:03;0.70;99.90
33255;DHT22;19623;52.482;9.762;2023-01-19T00:16:29;0.70;99.90
33255;DHT22;19623;52.482;9.762;2023-01-19T00:18:55;0.60;99.90
33255;DHT22;19623;52.482;9.762;2023-01-19T00:21:21;0.60;99.90
33255;DHT22;19623;52.482;9.762;2023-01-19T00:23:47;0.60;99.90
33255;DHT22;19623;52.482;9.762;2023-01-19T00:26:14;0.60;99.90
33255;DHT22;19623;52.482;9.762;2023-01-19T00:28:41;0.50;99.90
33255;DHT22;19623;52.482;9.762;2023-01-19T00:31:07;0.40;99.90
33255;DHT22;19623;52.482;9.762;2023-01-19T00:33:33;0.50;99.90
33255;DHT22;19623;52.482;9.762;2023-01-19T00:35:58;0.50;99.90
33255;DHT22;19623;52.482;9.762;2023-01-19T00:38:24;0.50;99.90
33255;DHT22;19623;52.482;9.762;2023-01-19T00:40:50;0.40;99.90
33255;DHT22;19623;52.482;9.762;2023-01-19T00:43:15;0.50;99.90
33255;DHT22;19623;52.482;9.762;2023-01-19T00:45:41;0.50;99.90
33255;DHT22;19623;52.482;9.762;2023-01-19T00:48:07;0.60;99.90
33255;DHT22;19623;52.482;9.762;2023-01-19T00:50:33;0.70;99.90
33255;DHT22;19623;52.482;9.762;2023-01-19T00:52:59;0.90;99.90
33255;DHT22;19623;52.482;9.762;2023-01-19T00:55:26;1.00;99.90
33255;DHT22;19623;52.482;9.762;2023-01-19T00:57:53;1.20;99.90
33255;DHT22;19623;52.482;9.762;2023-01-19T01:00:20;1.30;99.90
33255;DHT22;19623;52.482;9.762;2023-01-19T01:02:47;1.40;99.90
33255;DHT22;19623;52.482;9.762;2023-01-19T01:05:13;1.50;99.90
33255;DHT22;19623;52.482;9.762;2023-01-19T01:07:39;1.60;99.90
33255;DHT22;19623;52.482;9.762;2023-01-19T01:10:11;1.60;99.90
33255;DHT22;19623;52.482;9.762;2023-01-19T01:12:38;1.60;99.90
33255;DHT22;19623;52.482;9.762;2023-01-19T01:15:05;1.70;99.90
33255;DHT22;19623;52.482;9.762;2023-01-19T01:17:32;1.60;99.90
33255;DHT22;19623;52.482;9.762;2023-01-19T01:19:57;1.70;99.90
33255;DHT22;19623;52.482;9.762;2023-01-19T01:22:23;1.70;99.90
33255;DHT22;19623;52.482;9.762;2023-01-19T01:24:49;1.60;99.90
33255;DHT22;19623;52.482;9.762;2023-01-19T01:27:14;1.70;99.90
33255;DHT22;19623;52.482;9.762;2023-01-19T01:29:40;1.70;99.90
33255;DHT22;19623;52.482;9.762;2023-01-19T01:32:12;1.60;99.90
33255;DHT22;19623;52.482;9.762;2023-01-19T01:34:38;1.50;99.90
33255;DHT22;19623;52.482;9.762;2023-01-19T01:37:04;1.40;99.90
33255;DHT22;19623;52.482;9.762;2023-01-19T01:39:33;1.30;99.90
33255;DHT22;19623;52.482;9.762;2023-01-19T01:41:58;1.30;99.90
33255;DHT22;19623;52.482;9.762;2023-01-19T01:44:48;1.30;99.90
33255;DHT22;19623;52.482;9.762;2023-01-19T01:49:46;1.20;99.90
33255;DHT22;19623;52.482;9.762;2023-01-19T01:52:13;1.10;99.90
33255;DHT22;19623;52.482;9.762;2023-01-19T01:54:39;1.10;99.90
33255;DHT22;19623;52.482;9.762;2023-01-19T01:57:07;1.00;99.90
33255;DHT22;19623;52.482;9.762;2023-01-19T01:59:40;0.90;99.90
33255;DHT22;19623;52.482;9.762;2023-01-19T02:02:11;0.80;99.90
33255;DHT22;19623;52.482;9.762;2023-01-19T02:05:07;0.70;99.90
33255;DHT22;19623;52.482;9.762;2023-01-19T02:10:37;0.70;99.90
33255;DHT22;19623;52.482;9.762;2023-01-19T02:13:22;0.80;99.90
33255;DHT22;19623;52.482;9.762;2023-01-19T02:15:55;0.60;99.90
33255;DHT22;19623;52.482;9.762;2023-01-19T02:18:24;0.60;99.90
33255;DHT22;19623;52.482;9.762;2023-01-19T02:21:13;0.70;99.90
33255;DHT22;19623;52.482;9.762;2023-01-19T02:23:53;0.70;99.90
33255;DHT22;19623;52.482;9.762;2023-01-19T02:29:02;0.60;99.90
33255;DHT22;19623;52.482;9.762;2023-01-19T02:31:30;0.60;99.90
33255;DHT22;19623;52.482;9.762;2023-01-19T02:33:57;0.60;99.90
33255;DHT22;19623;52.482;9.762;2023-01-19T02:36:28;0.60;99.90
33255;DHT22;19623;52.482;9.762;2023-01-19T02:38:56;0.70;99.90
33255;DHT22;19623;52.482;9.762;2023-01-19T02:41:27;0.80;99.90
33255;DHT22;19623;52.482;9.762;2023-01-19T02:43:55;0.70;99.90
33255;DHT22;19623;52.482;9.762;2023-01-19T02:46:22;0.70;99.90
33255;DHT22;19623;52.482;9.762;2023-01-19T02:48:48;0.80;99.90
33255;DHT22;19623;52.482;9.762;2023-01-19T02:51:21;0.80;99.90
33255;DHT22;19623;52.482;9.762;2023-01-19T03:08:06;0.80;99.90
33255;DHT22;19623;52.482;9.762;2023-01-19T03:11:00;0.90;99.90
33255;DHT22;19623;52.482;9.762;2023-01-19T03:13:46;1.00;99.90
33255;DHT22;19623;52.482;9.762;2023-01-19T03:19:18;1.20;99.90
33255;DHT22;19623;52.482;9.762;2023-01-19T03:21:48;1.40;99.90
33255;DHT22;19623;52.482;9.762;2023-01-19T03:24:16;1.40;99.90
33255;DHT22;19623;52.482;9.762;2023-01-19T03:26:48;1.40;99.90
33255;DHT22;19623;52.482;9.762;2023-01-19T03:29:14;1.40;99.90
33255;DHT22;19623;52.482;9.762;2023-01-19T03:31:43;1.40;99.90
33255;DHT22;19623;52.482;9.762;2023-01-19T03:34:11;1.40;99.90
33255;DHT22;19623;52.482;9.762;2023-01-19T03:36:50;1.40;99.90
33255;DHT22;19623;52.482;9.762;2023-01-19T03:39:21;1.60;99.90
33255;DHT22;19623;52.482;9.762;2023-01-19T03:41:50;1.60;99.90
33255;DHT22;19623;52.482;9.762;2023-01-19T03:44:21;1.60;99.90
33255;DHT22;19623;52.482;9.762;2023-01-19T03:46:47;1.60;99.90
33255;DHT22;19623;52.482;9.762;2023-01-19T03:49:15;1.60;99.90
33255;DHT22;19623;52.482;9.762;2023-01-19T03:51:40;1.70;99.90
33255;DHT22;19623;52.482;9.762;2023-01-19T03:54:08;1.70;99.90
33255;DHT22;19623;52.482;9.762;2023-01-19T03:56:34;1.80;99.90
33255;DHT22;19623;52.482;9.762;2023-01-19T03:58:59;1.80;99.90
33255;DHT22;19623;52.482;9.762;2023-01-19T04:01:25;1.90;99.90
33255;DHT22;19623;52.482;9.762;2023-01-19T04:03:52;1.80;99.90
33255;DHT22;19623;52.482;9.762;2023-01-19T04:06:18;1.90;99.90
33255;DHT22;19623;52.482;9.762;2023-01-19T04:08:46;1.90;99.90
33255;DHT22;19623;52.482;9.762;2023-01-19T04:11:12;2.00;99.90
33255;DHT22;19623;52.482;9.762;2023-01-19T04:13:37;2.00;99.90
33255;DHT22;19623;52.482;9.762;2023-01-19T04:16:04;2.00;99.90
33255;DHT22;19623;52.482;9.762;2023-01-19T04:18:33;2.00;99.90
33255;DHT22;19623;52.482;9.762;2023-01-19T04:21:04;2.00;99.90
33255;DHT22;19623;52.482;9.762;2023-01-19T04:23:30;2.10;99.90
33255;DHT22;19623;52.482;9.762;2023-01-19T04:26:06;2.10;99.90
33255;DHT22;19623;52.482;9.762;2023-01-19T04:28:33;2.10;99.90
33255;DHT22;19623;52.482;9.762;2023-01-19T04:30:59;2.10;99.90
33255;DHT22;19623;52.482;9.762;2023-01-19T04:33:26;2.10;99.90
33255;DHT22;19623;52.482;9.762;2023-01-19T04:35:52;2.10;99.90
33255;DHT22;19623;52.482;9.762;2023-01-19T04:38:19;2.10;99.90
33255;DHT22;19623;52.482;9.762;2023-01-19T04:40:45;2.20;99.90
33255;DHT22;19623;52.482;9.762;2023-01-19T04:43:11;2.10;99.90
33255;DHT22;19623;52.482;9.762;2023-01-19T04:45:37;2.10;99.90
33255;DHT22;19623;52.482;9.762;2023-01-19T04:48:03;2.10;99.90
33255;DHT22;19623;52.482;9.762;2023-01-19T04:50:30;2.10;99.90
33255;DHT22;19623;52.482;9.762;2023-01-19T04:52:57;2.10;99.90
33255;DHT22;19623;52.482;9.762;2023-01-19T04:55:22;2.20;99.90
33255;DHT22;19623;52.482;9.762;2023-01-19T04:57:48;2.20;99.90
33255;DHT22;19623;52.482;9.762;2023-01-19T05:00:14;2.20;99.90
33255;DHT22;19623;52.482;9.762;2023-01-19T05:02:40;2.20;99.90
33255;DHT22;19623;52.482;9.762;2023-01-19T05:05:08;2.20;99.90
33255;DHT22;19623;52.482;9.762;2023-01-19T05:07:34;2.20;99.90
33255;DHT22;19623;52.482;9.762;2023-01-19T05:10:03;2.20;99.90
33255;DHT22;19623;52.482;9.762;2023-01-19T05:12:29;2.10;99.90
33255;DHT22;19623;52.482;9.762;2023-01-19T05:14:55;2.20;99.90
33255;DHT22;19623;52.482;9.762;2023-01-19T05:17:21;2.30;99.90
33255;DHT22;19623;52.482;9.762;2023-01-19T05:19:46;2.20;99.90
33255;DHT22;19623;52.482;9.762;2023-01-19T05:22:13;2.30;99.90
33255;DHT22;19623;52.482;9.762;2023-01-19T05:24:39;2.30;99.90
33255;DHT22;19623;52.482;9.762;2023-01-19T05:27:05;2.30;99.90
33255;DHT22;19623;52.482;9.762;2023-01-19T05:29:31;2.30;99.90
33255;DHT22;19623;52.482;9.762;2023-01-19T05:31:56;2.30;99.90
33255;DHT22;19623;52.482;9.762;2023-01-19T05:34:22;2.40;99.90
33255;DHT22;19623;52.482;9.762;2023-01-19T05:36:48;2.50;99.90
33255;DHT22;19623;52.482;9.762;2023-01-19T05:39:14;2.50;99.90
33255;DHT22;19623;52.482;9.762;2023-01-19T05:41:40;2.50;99.90
33255;DHT22;19623;52.482;9.762;2023-01-19T05:44:07;2.50;99.90
33255;DHT22;19623;52.482;9.762;2023-01-19T05:46:33;2.60;99.90
33255;DHT22;19623;52.482;9.762;2023-01-19T05:48:59;2.60;99.90
33255;DHT22;19623;52.482;9.762;2023-01-19T05:51:29;2.60;99.90
33255;DHT22;19623;52.482;9.762;2023-01-19T05:54:05;2.50;99.90
33255;DHT22;19623;52.482;9.762;2023-01-19T05:56:31;2.60;99.90
33255;DHT22;19623;52.482;9.762;2023-01-19T05:58:57;2.70;99.90
33255;DHT22;19623;52.482;9.762;2023-01-19T06:01:23;2.70;99.90
33255;DHT22;19623;52.482;9.762;2023-01-19T06:03:48;2.80;99.90
33255;DHT22;19623;52.482;9.762;2023-01-19T06:06:14;2.80;99.90
33255;DHT22;19623;52.482;9.762;2023-01-19T06:08:40;2.70;99.90
33255;DHT22;19623;52.482;9.762;2023-01-19T06:11:06;2.70;99.90
33255;DHT22;19623;52.482;9.762;2023-01-19T06:13:33;2.70;99.90
33255;DHT22;19623;52.482;9.762;2023-01-19T06:16:00;2.70;99.90
33255;DHT22;19623;52.482;9.762;2023-01-19T06:18:26;2.70;99.90
33255;DHT22;19623;52.482;9.762;2023-01-19T06:20:52;2.70;99.90
33255;DHT22;19623;52.482;9.762;2023-01-19T06:23:25;2.80;99.90
33255;DHT22;19623;52.482;9.762;2023-01-19T06:25:51;2.70;99.90
33255;DHT22;19623;52.482;9.762;2023-01-19T06:28:17;2.60;99.90
33255;DHT22;19623;52.482;9.762;2023-01-19T06:30:47;2.70;99.90
33255;DHT22;19623;52.482;9.762;2023-01-19T06:33:14;2.80;99.90
33255;DHT22;19623;52.482;9.762;2023-01-19T06:35:42;2.70;99.90
33255;DHT22;19623;52.482;9.762;2023-01-19T06:38:08;2.70;99.90
33255;DHT22;19623;52.482;9.762;2023-01-19T06:40:34;2.70;99.90
33255;DHT22;19623;52.482;9.762;2023-01-19T06:43:00;2.70;99.90
33255;DHT22;19623;52.482;9.762;2023-01-19T06:45:25;2.70;99.90
33255;DHT22;19623;52.482;9.762;2023-01-19T06:47:51;2.70;99.90
33255;DHT22;19623;52.482;9.762;2023-01-19T06:50:17;2.80;99.90
33255;DHT22;19623;52.482;9.762;2023-01-19T06:52:43;2.70;99.90
33255;DHT22;19623;52.482;9.762;2023-01-19T06:55:10;2.70;99.90
33255;DHT22;19623;52.482;9.762;2023-01-19T06:57:36;2.70;99.90
33255;DHT22;19623;52.482;9.762;2023-01-19T07:00:04;2.70;99.90
33255;DHT22;19623;52.482;9.762;2023-01-19T07:02:33;2.70;99.90
33255;DHT22;19623;52.482;9.762;2023-01-19T07:04:59;2.80;99.90
33255;DHT22;19623;52.482;9.762;2023-01-19T07:07:24;2.80;99.90
33255;DHT22;19623;52.482;9.762;2023-01-19T07:09:50;2.90;99.90
33255;DHT22;19623;52.482;9.762;2023-01-19T07:12:16;2.90;99.90
33255;DHT22;19623;52.482;9.762;2023-01-19T07:14:42;2.80;99.90
33255;DHT22;19623;52.482;9.762;2023-01-19T07:17:08;2.90;99.90
33255;DHT22;19623;52.482;9.762;2023-01-19T07:19:35;2.80;99.90
33255;DHT22;19623;52.482;9.762;2023-01-19T07:22:01;2.80;99.90
33255;DHT22;19623;52.482;9.762;2023-01-19T07:24:27;2.90;99.90
33255;DHT22;19623;52.482;9.762;2023-01-19T07:26:55;3.00;99.90
33255;DHT22;19623;52.482;9.762;2023-01-19T07:29:24;3.00;99.90
33255;DHT22;19623;52.482;9.762;2023-01-19T07:31:51;2.90;99.90
33255;DHT22;19623;52.482;9.762;2023-01-19T07:34:19;2.90;99.90
33255;DHT22;19623;52.482;9.762;2023-01-19T07:36:45;2.80;99.90
33255;DHT22;19623;52.482;9.762;2023-01-19T07:39:11;2.90;99.90
33255;DHT22;19623;52.482;9.762;2023-01-19T07:41:40;2.90;99.90
33255;DHT22;19623;52.482;9.762;2023-01-19T07:44:05;2.90;99.90
33255;DHT22;19623;52.482;9.762;2023-01-19T07:46:31;2.90;99.90
33255;DHT22;19623;52.482;9.762;2023-01-19T07:48:57;3.00;99.90
33255;DHT22;19623;52.482;9.762;2023-01-19T07:51:23;3.00;99.90
33255;DHT22;19623;52.482;9.762;2023-01-19T07:53:50;3.00;99.90
33255;DHT22;19623;52.482;9.762;2023-01-19T07:56:16;3.10;99.90
33255;DHT22;19623;52.482;9.762;2023-01-19T07:58:42;3.10;99.90
33255;DHT22;19623;52.482;9.762;2023-01-19T08:01:09;3.00;99.90
33255;DHT22;19623;52.482;9.762;2023-01-19T08:03:36;3.00;99.90
33255;DHT22;19623;52.482;9.762;2023-01-19T08:06:02;3.10;99.90
33255;DHT22;19623;52.482;9.762;2023-01-19T08:08:30;3.00;99.90
33255;DHT22;19623;52.482;9.762;2023-01-19T08:10:56;3.00;99.90
33255;DHT22;19623;52.482;9.762;2023-01-19T08:13:23;3.10;99.90
33255;DHT22;19623;52.482;9.762;2023-01-19T08:15:52;3.10;99.90
33255;DHT22;19623;52.482;9.762;2023-01-19T08:18:18;3.10;99.90
33255;DHT22;19623;52.482;9.762;2023-01-19T08:20:44;3.10;99.90
33255;DHT22;19623;52.482;9.762;2023-01-19T08:23:11;3.10;99.90
33255;DHT22;19623;52.482;9.762;2023-01-19T08:25:41;3.10;99.90
33255;DHT22;19623;52.482;9.762;2023-01-19T08:28:09;3.10;99.90
33255;DHT22;19623;52.482;9.762;2023-01-19T08:30:36;3.10;99.90
33255;DHT22;19623;52.482;9.762;2023-01-19T08:33:02;3.10;99.90
33255;DHT22;19623;52.482;9.762;2023-01-19T08:35:33;3.00;99.90
33255;DHT22;19623;52.482;9.762;2023-01-19T08:37:59;3.00;99.90
33255;DHT22;19623;52.482;9.762;2023-01-19T08:40:30;3.00;99.90
33255;DHT22;19623;52.482;9.762;2023-01-19T08:43:06;2.90;99.90
33255;DHT22;19623;52.482;9.762;2023-01-19T08:45:37;2.90;99.90
33255;DHT22;19623;52.482;9.762;2023-01-19T08:48:06;2.90;99.90
33255;DHT22;19623;52.482;9.762;2023-01-19T08:50:32;2.90;99.90
33255;DHT22;19623;52.482;9.762;2023-01-19T08:52:59;3.00;99.90
33255;DHT22;19623;52.482;9.762;2023-01-19T08:55:25;3.00;99.90
33255;DHT22;19623;52.482;9.762;2023-01-19T08:57:52;3.00;99.90
33255;DHT22;19623;52.482;9.762;2023-01-19T09:00:19;3.00;99.90
33255;DHT22;19623;52.482;9.762;2023-01-19T09:02:45;2.90;99.90
33255;DHT22;19623;52.482;9.762;2023-01-19T09:05:11;3.00;99.90
33255;DHT22;19623;52.482;9.762;2023-01-19T09:07:37;3.00;99.90
33255;DHT22;19623;52.482;9.762;2023-01-19T09:10:05;2.90;99.90
33255;DHT22;19623;52.482;9.762;2023-01-19T09:12:31;2.90;99.90
33255;DHT22;19623;52.482;9.762;2023-01-19T09:14:57;2.90;99.90
33255;DHT22;19623;52.482;9.762;2023-01-19T09:17:24;2.90;99.90
33255;DHT22;19623;52.482;9.762;2023-01-19T09:19:50;2.80;99.90
33255;DHT22;19623;52.482;9.762;2023-01-19T09:22:15;2.90;99.90
33255;DHT22;19623;52.482;9.762;2023-01-19T09:24:41;2.90;99.90
33255;DHT22;19623;52.482;9.762;2023-01-19T09:27:07;3.00;99.90
33255;DHT22;19623;52.482;9.762;2023-01-19T09:29:32;3.00;99.90
33255;DHT22;19623;52.482;9.762;2023-01-19T09:31:58;3.00;99.90
33255;DHT22;19623;52.482;9.762;2023-01-19T09:34:24;3.00;99.90
33255;DHT22;19623;52.482;9.762;2023-01-19T09:36:52;3.00;99.90
33255;DHT22;19623;52.482;9.762;2023-01-19T09:39:18;3.00;99.90
33255;DHT22;19623;52.482;9.762;2023-01-19T09:42:07;3.10;99.90
33255;DHT22;19623;52.482;9.762;2023-01-19T09:44:40;3.20;99.90
33255;DHT22;19623;52.482;9.762;2023-01-19T09:47:15;3.30;99.90
33255;DHT22;19623;52.482;9.762;2023-01-19T09:49:50;3.30;99.90
33255;DHT22;19623;52.482;9.762;2023-01-19T09:52:16;3.30;99.90
33255;DHT22;19623;52.482;9.762;2023-01-19T09:54:56;3.20;99.90
33255;DHT22;19623;52.482;9.762;2023-01-19T09:57:26;3.30;99.90
33255;DHT22;19623;52.482;9.762;2023-01-19T09:59:53;3.20;99.90
33255;DHT22;19623;52.482;9.762;2023-01-19T10:03:03;3.20;99.90
33255;DHT22;19623;52.482;9.762;2023-01-19T10:08:22;3.10;99.90
33255;DHT22;19623;52.482;9.762;2023-01-19T10:10:54;3.00;99.90
33255;DHT22;19623;52.482;9.762;2023-01-19T10:13:28;2.90;99.90
33255;DHT22;19623;52.482;9.762;2023-01-19T10:18:44;2.80;99.90
33255;DHT22;19623;52.482;9.762;2023-01-19T10:26:32;2.90;99.90
33255;DHT22;19623;52.482;9.762;2023-01-19T10:29:05;2.90;99.90
33255;DHT22;19623;52.482;9.762;2023-01-19T10:31:33;3.10;99.90
33255;DHT22;19623;52.482;9.762;2023-01-19T10:34:00;3.10;99.90
33255;DHT22;19623;52.482;9.762;2023-01-19T10:36:36;3.10;99.90
33255;DHT22;19623;52.482;9.762;2023-01-19T10:39:05;3.20;99.90
33255;DHT22;19623;52.482;9.762;2023-01-19T10:41:42;3.40;99.90
33255;DHT22;19623;52.482;9.762;2023-01-19T10:44:09;3.40;99.90
33255;DHT22;19623;52.482;9.762;2023-01-19T10:46:44;3.50;99.90
33255;DHT22;19623;52.482;9.762;2023-01-19T10:49:23;3.40;99.90
33255;DHT22;19623;52.482;9.762;2023-01-19T10:51:50;3.30;99.90
33255;DHT22;19623;52.482;9.762;2023-01-19T10:54:16;3.20;99.90
33255;DHT22;19623;52.482;9.762;2023-01-19T10:56:42;3.20;99.90
33255;DHT22;19623;52.482;9.762;2023-01-19T10:59:49;3.30;99.90
33255;DHT22;19623;52.482;9.762;2023-01-19T11:04:44;3.40;99.90
33255;DHT22;19623;52.482;9.762;2023-01-19T11:07:22;3.40;99.90
33255;DHT22;19623;52.482;9.762;2023-01-19T11:09:48;3.40;99.90
33255;DHT22;19623;52.482;9.762;2023-01-19T11:12:24;3.40;99.90
33255;DHT22;19623;52.482;9.762;2023-01-19T11:14:50;3.40;99.90
33255;DHT22;19623;52.482;9.762;2023-01-19T11:17:25;3.60;99.90
33255;DHT22;19623;52.482;9.762;2023-01-19T11:20:00;3.70;99.90
33255;DHT22;19623;52.482;9.762;2023-01-19T11:22:31;3.70;99.90
33255;DHT22;19623;52.482;9.762;2023-01-19T11:25:03;3.70;99.90
33255;DHT22;19623;52.482;9.762;2023-01-19T11:27:31;3.70;99.90
33255;DHT22;19623;52.482;9.762;2023-01-19T11:30:02;3.90;99.90
33255;DHT22;19623;52.482;9.762;2023-01-19T11:32:32;4.00;99.90
33255;DHT22;19623;52.482;9.762;2023-01-19T11:35:09;4.10;99.90
33255;DHT22;19623;52.482;9.762;2023-01-19T11:37:47;4.10;99.90
33255;DHT22;19623;52.482;9.762;2023-01-19T11:40:15;4.20;99.90
33255;DHT22;19623;52.482;9.762;2023-01-19T11:42:41;4.30;99.90
33255;DHT22;19623;52.482;9.762;2023-01-19T11:45:14;4.40;99.90
33255;DHT22;19623;52.482;9.762;2023-01-19T11:47:46;4.40;99.90
33255;DHT22;19623;52.482;9.762;2023-01-19T11:51:02;4.40;99.90
33255;DHT22;19623;52.482;9.762;2023-01-19T11:53:32;4.50;99.90
33255;DHT22;19623;52.482;9.762;2023-01-19T11:56:09;4.50;99.90
33255;DHT22;19623;52.482;9.762;2023-01-19T11:58:43;4.50;99.90
33255;DHT22;19623;52.482;9.762;2023-01-19T12:01:21;4.60;99.90
33255;DHT22;19623;52.482;9.762;2023-01-19T12:04:10;4.60;99.90
33255;DHT22;19623;52.482;9.762;2023-01-19T12:06:45;4.60;99.90
33255;DHT22;19623;52.482;9.762;2023-01-19T12:11:54;4.50;99.90
33255;DHT22;19623;52.482;9.762;2023-01-19T12:14:30;4.40;99.90
33255;DHT22;19623;52.482;9.762;2023-01-19T12:17:02;4.30;99.90
33255;DHT22;19623;52.482;9.762;2023-01-19T12:19:43;4.20;99.90
33255;DHT22;19623;52.482;9.762;2023-01-19T12:22:14;4.00;99.90
33255;DHT22;19623;52.482;9.762;2023-01-19T12:24:50;4.00;99.90
33255;DHT22;19623;52.482;9.762;2023-01-19T12:27:39;3.90;99.90
33255;DHT22;19623;52.482;9.762;2023-01-19T12:32:41;3.80;99.90
33255;DHT22;19623;52.482;9.762;2023-01-19T12:38:34;3.80;99.90
33255;DHT22;19623;52.482;9.762;2023-01-19T12:41:34;3.80;99.90
33255;DHT22;19623;52.482;9.762;2023-01-19T12:44:13;3.80;99.90
33255;DHT22;19623;52.482;9.762;2023-01-19T12:46:59;3.80;99.90
33255;DHT22;19623;52.482;9.762;2023-01-19T12:52:25;3.90;99.90
33255;DHT22;19623;52.482;9.762;2023-01-19T13:02:55;3.90;99.90
33255;DHT22;19623;52.482;9.762;2023-01-19T13:13:23;4.00;99.90
33255;DHT22;19623;52.482;9.762;2023-01-19T13:15:49;3.90;99.90
33255;DHT22;19623;52.482;9.762;2023-01-19T13:21:06;4.00;99.90
33255;DHT22;19623;52.482;9.762;2023-01-19T13:26:28;4.10;99.90
33255;DHT22;19623;52.482;9.762;2023-01-19T13:28:56;4.10;99.90
33255;DHT22;19623;52.482;9.762;2023-01-19T13:31:24;4.20;99.90
33255;DHT22;19623;52.482;9.762;2023-01-19T13:33:54;4.10;99.90
33255;DHT22;19623;52.482;9.762;2023-01-19T13:38:51;4.10;99.90
33255;DHT22;19623;52.482;9.762;2023-01-19T13:41:20;4.20;99.90
33255;DHT22;19623;52.482;9.762;2023-01-19T13:43:57;4.20;99.90
33255;DHT22;19623;52.482;9.762;2023-01-19T13:46:24;4.20;99.90
33255;DHT22;19623;52.482;9.762;2023-01-19T13:48:53;4.20;99.90
33255;DHT22;19623;52.482;9.762;2023-01-19T13:51:20;4.20;99.90
33255;DHT22;19623;52.482;9.762;2023-01-19T13:53:59;4.20;99.90
33255;DHT22;19623;52.482;9.762;2023-01-19T13:56:27;4.20;99.90
33255;DHT22;19623;52.482;9.762;2023-01-19T13:59:06;4.30;99.90
33255;DHT22;19623;52.482;9.762;2023-01-19T14:01:36;4.20;99.90
33255;DHT22;19623;52.482;9.762;2023-01-19T14:04:02;4.20;99.90
33255;DHT22;19623;52.482;9.762;2023-01-19T14:06:39;4.30;99.90
33255;DHT22;19623;52.482;9.762;2023-01-19T14:09:14;4.30;99.90
33255;DHT22;19623;52.482;9.762;2023-01-19T14:11:45;4.40;99.90
33255;DHT22;19623;52.482;9.762;2023-01-19T14:14:25;4.30;99.90
33255;DHT22;19623;52.482;9.762;2023-01-19T14:16:52;4.30;99.90
33255;DHT22;19623;52.482;9.762;2023-01-19T14:19:17;4.30;99.90
33255;DHT22;19623;52.482;9.762;2023-01-19T14:21:43;4.20;99.90
33255;DHT22;19623;52.482;9.762;2023-01-19T14:24:17;4.20;99.90
33255;DHT22;19623;52.482;9.762;2023-01-19T14:26:48;4.30;99.90
33255;DHT22;19623;52.482;9.762;2023-01-19T14:32:15;4.40;99.90
33255;DHT22;19623;52.482;9.762;2023-01-19T14:34:47;4.40;99.90
33255;DHT22;19623;52.482;9.762;2023-01-19T14:37:27;4.30;99.90
33255;DHT22;19623;52.482;9.762;2023-01-19T14:42:54;4.20;99.90
33255;DHT22;19623;52.482;9.762;2023-01-19T14:45:29;4.20;99.90
33255;DHT22;19623;52.482;9.762;2023-01-19T14:48:15;4.10;99.90
33255;DHT22;19623;52.482;9.762;2023-01-19T14:50:42;4.10;99.90
33255;DHT22;19623;52.482;9.762;2023-01-19T14:53:22;4.10;99.90
33255;DHT22;19623;52.482;9.762;2023-01-19T14:56:02;4.10;99.90
33255;DHT22;19623;52.482;9.762;2023-01-19T14:58:32;4.00;99.90
33255;DHT22;19623;52.482;9.762;2023-01-19T15:00:59;4.00;99.90
33255;DHT22;19623;52.482;9.762;2023-01-19T15:03:26;4.00;99.90
33255;DHT22;19623;52.482;9.762;2023-01-19T15:05:54;4.00;99.90
33255;DHT22;19623;52.482;9.762;2023-01-19T15:08:28;4.00;99.90
33255;DHT22;19623;52.482;9.762;2023-01-19T15:10:55;3.90;99.90
33255;DHT22;19623;52.482;9.762;2023-01-19T15:13:24;3.90;99.90
33255;DHT22;19623;52.482;9.762;2023-01-19T15:15:51;3.90;99.90
33255;DHT22;19623;52.482;9.762;2023-01-19T15:18:22;3.90;99.90
33255;DHT22;19623;52.482;9.762;2023-01-19T15:20:49;3.80;99.90
33255;DHT22;19623;52.482;9.762;2023-01-19T15:23:15;3.80;99.90
33255;DHT22;19623;52.482;9.762;2023-01-19T15:25:41;3.90;99.90
33255;DHT22;19623;52.482;9.762;2023-01-19T15:28:14;3.80;99.90
33255;DHT22;19623;52.482;9.762;2023-01-19T15:30:41;3.80;99.90
33255;DHT22;19623;52.482;9.762;2023-01-19T15:33:21;3.80;99.90
33255;DHT22;19623;52.482;9.762;2023-01-19T15:35:47;3.70;99.90
33255;DHT22;19623;52.482;9.762;2023-01-19T15:38:13;3.70;99.90
33255;DHT22;19623;52.482;9.762;2023-01-19T15:40:39;3.70;99.90
33255;DHT22;19623;52.482;9.762;2023-01-19T15:43:05;3.60;99.90
33255;DHT22;19623;52.482;9.762;2023-01-19T15:48:07;3.50;99.90
33255;DHT22;19623;52.482;9.762;2023-01-19T15:50:43;3.40;99.90
33255;DHT22;19623;52.482;9.762;2023-01-19T15:53:14;3.40;99.90
33255;DHT22;19623;52.482;9.762;2023-01-19T15:55:41;3.40;99.90
33255;DHT22;19623;52.482;9.762;2023-01-19T15:58:06;3.40;99.90
33255;DHT22;19623;52.482;9.762;2023-01-19T16:00:33;3.50;99.90
33255;DHT22;19623;52.482;9.762;2023-01-19T16:03:00;3.40;99.90
33255;DHT22;19623;52.482;9.762;2023-01-19T16:05:27;3.50;99.90
33255;DHT22;19623;52.482;9.762;2023-01-19T16:07:54;3.50;99.90
33255;DHT22;19623;52.482;9.762;2023-01-19T16:10:21;3.50;99.90
33255;DHT22;19623;52.482;9.762;2023-01-19T16:12:47;3.40;99.90
33255;DHT22;19623;52.482;9.762;2023-01-19T16:15:14;3.40;99.90
33255;DHT22;19623;52.482;9.762;2023-01-19T16:17:40;3.30;99.90
33255;DHT22;19623;52.482;9.762;2023-01-19T16:20:06;3.20;99.90
33255;DHT22;19623;52.482;9.762;2023-01-19T16:22:32;3.10;99.90
33255;DHT22;19623;52.482;9.762;2023-01-19T16:24:58;3.10;99.90
33255;DHT22;19623;52.482;9.762;2023-01-19T16:27:25;3.10;99.90
33255;DHT22;19623;52.482;9.762;2023-01-19T16:29:51;3.00;99.90
33255;DHT22;19623;52.482;9.762;2023-01-19T16:32:17;3.10;99.90
33255;DHT22;19623;52.482;9.762;2023-01-19T16:34:43;3.10;99.90
33255;DHT22;19623;52.482;9.762;2023-01-19T16:37:09;3.00;99.90
33255;DHT22;19623;52.482;9.762;2023-01-19T16:39:34;3.10;99.90
33255;DHT22;19623;52.482;9.762;2023-01-19T16:42:00;3.00;99.90
33255;DHT22;19623;52.482;9.762;2023-01-19T16:44:35;2.90;99.90
33255;DHT22;19623;52.482;9.762;2023-01-19T16:47:00;3.00;99.90
33255;DHT22;19623;52.482;9.762;2023-01-19T16:49:26;2.90;99.90
33255;DHT22;19623;52.482;9.762;2023-01-19T16:51:52;2.90;99.90
33255;DHT22;19623;52.482;9.762;2023-01-19T16:54:23;2.90;99.90
33255;DHT22;19623;52.482;9.762;2023-01-19T16:56:53;2.90;99.90
33255;DHT22;19623;52.482;9.762;2023-01-19T16:59:19;2.90;99.90
33255;DHT22;19623;52.482;9.762;2023-01-19T17:01:46;2.90;99.90
33255;DHT22;19623;52.482;9.762;2023-01-19T17:04:14;2.90;99.90
33255;DHT22;19623;52.482;9.762;2023-01-19T17:06:42;2.90;99.90
33255;DHT22;19623;52.482;9.762;2023-01-19T17:09:08;2.90;99.90
33255;DHT22;19623;52.482;9.762;2023-01-19T17:11:34;2.80;99.90
33255;DHT22;19623;52.482;9.762;2023-01-19T17:14:06;2.80;99.90
33255;DHT22;19623;52.482;9.762;2023-01-19T17:16:33;2.80;99.90
33255;DHT22;19623;52.482;9.762;2023-01-19T17:19:01;2.70;99.90
33255;DHT22;19623;52.482;9.762;2023-01-19T17:21:27;2.70;99.90